Mayer, Minnesota
Current Conditions -  °F | °C
As of 1:33 AM on Saturday 25 Oct 2014 (Local Time) from KGYL Reporting Station
Clear Clear  
Wind Chill: 59°   Ceiling: Unl
Heat Index: 59°   Visibility: 10mi
Dew Point: 43°   Wind: 9mph
Humidity: 56%   Direction: 280°W
Pressure: 29.95"   Gusts: NA
Location:  44.88°N, 93.89°W
Report Text: KGYL 250633Z AUTO 28008KT 10SM CLR 15/06 A2995 RMK AO2 T01480061
Loading
Personal Weather Stations






























Interactive Weather Map New forecast layout! Learn more

10-Day Weather Forecast

Advertisements
Track Severe Weather on mobile